sensor_id;sensor_type;location;lat;lon;timestamp;pressure;altitude;pressure_sealevel;temperature;humidity
50292;BME280;36190;54.980;73.388;2023-05-23T00:02:00;101328.13;;;16.18;42.23
50292;BME280;36190;54.980;73.388;2023-05-23T00:04:32;101336.22;;;16.18;42.36
50292;BME280;36190;54.980;73.388;2023-05-23T00:07:01;101341.59;;;16.18;42.42
50292;BME280;36190;54.980;73.388;2023-05-23T00:09:29;101334.53;;;16.17;42.36
50292;BME280;36190;54.980;73.388;2023-05-23T00:11:57;101339.06;;;16.17;42.37
50292;BME280;36190;54.980;73.388;2023-05-23T00:14:26;101341.59;;;16.18;42.47
50292;BME280;36190;54.980;73.388;2023-05-23T00:16:56;101340.56;;;16.19;42.27
50292;BME280;36190;54.980;73.388;2023-05-23T00:19:24;101341.59;;;16.18;42.36
50292;BME280;36190;54.980;73.388;2023-05-23T00:21:52;101337.88;;;16.19;42.54
50292;BME280;36190;54.980;73.388;2023-05-23T00:24:23;101341.22;;;16.21;42.49
50292;BME280;36190;54.980;73.388;2023-05-23T00:26:50;101342.53;;;16.26;42.42
50292;BME280;36190;54.980;73.388;2023-05-23T00:29:18;101348.22;;;16.31;42.42
50292;BME280;36190;54.980;73.388;2023-05-23T00:31:47;101347.84;;;16.34;42.39
50292;BME280;36190;54.980;73.388;2023-05-23T00:34:15;101348.50;;;16.36;42.22
50292;BME280;36190;54.980;73.388;2023-05-23T00:36:43;101342.38;;;16.42;42.32
50292;BME280;36190;54.980;73.388;2023-05-23T00:39:12;101351.09;;;16.44;42.39
50292;BME280;36190;54.980;73.388;2023-05-23T00:41:44;101356.59;;;16.51;42.50
50292;BME280;36190;54.980;73.388;2023-05-23T00:44:12;101354.19;;;16.56;42.45
50292;BME280;36190;54.980;73.388;2023-05-23T00:46:41;101352.97;;;16.59;42.56
50292;BME280;36190;54.980;73.388;2023-05-23T00:49:12;101355.75;;;16.66;42.67
50292;BME280;36190;54.980;73.388;2023-05-23T00:51:40;101356.22;;;16.69;42.62
50292;BME280;36190;54.980;73.388;2023-05-23T00:54:08;101363.59;;;16.75;42.49
50292;BME280;36190;54.980;73.388;2023-05-23T00:56:36;101362.56;;;16.76;42.38
50292;BME280;36190;54.980;73.388;2023-05-23T00:59:06;101373.63;;;16.82;42.52
50292;BME280;36190;54.980;73.388;2023-05-23T01:01:34;101367.47;;;16.88;42.48
50292;BME280;36190;54.980;73.388;2023-05-23T01:04:02;101367.13;;;16.91;42.48
50292;BME280;36190;54.980;73.388;2023-05-23T01:06:32;101370.09;;;16.96;42.32
50292;BME280;36190;54.980;73.388;2023-05-23T01:09:01;101365.63;;;17.03;42.23
50292;BME280;36190;54.980;73.388;2023-05-23T01:11:34;101361.38;;;17.09;42.06
50292;BME280;36190;54.980;73.388;2023-05-23T01:14:08;101368.69;;;17.15;42.01
50292;BME280;36190;54.980;73.388;2023-05-23T01:16:45;101377.34;;;17.26;41.98
50292;BME280;36190;54.980;73.388;2023-05-23T01:19:43;101379.72;;;17.36;41.85
50292;BME280;36190;54.980;73.388;2023-05-23T01:22:22;101376.44;;;17.40;41.72
50292;BME280;36190;54.980;73.388;2023-05-23T01:24:54;101380.28;;;17.46;41.83
50292;BME280;36190;54.980;73.388;2023-05-23T01:27:40;101373.72;;;17.55;41.97
50292;BME280;36190;54.980;73.388;2023-05-23T01:30:12;101376.50;;;17.62;41.84
50292;BME280;36190;54.980;73.388;2023-05-23T01:32:40;101380.97;;;17.70;41.63
50292;BME280;36190;54.980;73.388;2023-05-23T01:35:09;101373.38;;;17.80;41.64
50292;BME280;36190;54.980;73.388;2023-05-23T01:37:38;101382.75;;;17.84;41.81
50292;BME280;36190;54.980;73.388;2023-05-23T01:40:07;101378.25;;;17.92;41.69
50292;BME280;36190;54.980;73.388;2023-05-23T01:42:35;101374.78;;;17.98;41.80
50292;BME280;36190;54.980;73.388;2023-05-23T01:45:05;101374.69;;;18.06;42.20
50292;BME280;36190;54.980;73.388;2023-05-23T01:47:33;101373.91;;;18.12;42.10
50292;BME280;36190;54.980;73.388;2023-05-23T01:50:01;101375.63;;;18.20;42.19
50292;BME280;36190;54.980;73.388;2023-05-23T01:52:29;101374.44;;;18.30;41.92
50292;BME280;36190;54.980;73.388;2023-05-23T01:54:58;101372.63;;;18.37;41.42
50292;BME280;36190;54.980;73.388;2023-05-23T01:57:28;101364.59;;;18.44;41.26
50292;BME280;36190;54.980;73.388;2023-05-23T01:59:56;101374.44;;;18.58;41.00
50292;BME280;36190;54.980;73.388;2023-05-23T02:02:25;101385.09;;;18.66;40.76
50292;BME280;36190;54.980;73.388;2023-05-23T02:04:53;101387.00;;;18.73;40.81
50292;BME280;36190;54.980;73.388;2023-05-23T02:07:22;101386.03;;;18.80;40.76
50292;BME280;36190;54.980;73.388;2023-05-23T02:09:50;101397.50;;;18.89;40.43
50292;BME280;36190;54.980;73.388;2023-05-23T02:12:17;101396.53;;;18.97;40.41
50292;BME280;36190;54.980;73.388;2023-05-23T02:14:45;101399.28;;;19.04;40.40
50292;BME280;36190;54.980;73.388;2023-05-23T02:17:12;101393.72;;;19.12;40.43
50292;BME280;36190;54.980;73.388;2023-05-23T02:19:43;101392.91;;;19.18;40.33
50292;BME280;36190;54.980;73.388;2023-05-23T02:22:10;101405.84;;;19.30;40.30
50292;BME280;36190;54.980;73.388;2023-05-23T02:24:37;101401.31;;;19.37;39.94
50292;BME280;36190;54.980;73.388;2023-05-23T02:27:05;101407.38;;;19.46;40.04
50292;BME280;36190;54.980;73.388;2023-05-23T02:29:33;101406.78;;;19.50;39.69
50292;BME280;36190;54.980;73.388;2023-05-23T02:32:00;101403.03;;;19.51;39.72
50292;BME280;36190;54.980;73.388;2023-05-23T02:34:28;101405.56;;;19.60;39.63
50292;BME280;36190;54.980;73.388;2023-05-23T02:36:57;101408.06;;;19.68;39.37
50292;BME280;36190;54.980;73.388;2023-05-23T02:39:25;101406.84;;;19.77;39.32
50292;BME280;36190;54.980;73.388;2023-05-23T02:41:53;101407.25;;;19.88;39.17
50292;BME280;36190;54.980;73.388;2023-05-23T02:44:20;101415.66;;;20.00;39.07
50292;BME280;36190;54.980;73.388;2023-05-23T02:46:47;101420.66;;;20.10;38.97
50292;BME280;36190;54.980;73.388;2023-05-23T02:49:15;101419.44;;;20.19;38.75
50292;BME280;36190;54.980;73.388;2023-05-23T02:51:42;101418.19;;;20.28;38.48
50292;BME280;36190;54.980;73.388;2023-05-23T02:54:11;101418.59;;;20.39;38.24
50292;BME280;36190;54.980;73.388;2023-05-23T02:56:39;101419.00;;;20.49;38.22
50292;BME280;36190;54.980;73.388;2023-05-23T02:59:06;101429.66;;;20.57;37.72
50292;BME280;36190;54.980;73.388;2023-05-23T03:01:34;101421.09;;;20.60;37.43
50292;BME280;36190;54.980;73.388;2023-05-23T03:04:02;101426.47;;;20.67;37.44
50292;BME280;36190;54.980;73.388;2023-05-23T03:06:29;101425.44;;;20.75;37.33
50292;BME280;36190;54.980;73.388;2023-05-23T03:08:59;101421.50;;;20.84;37.30
50292;BME280;36190;54.980;73.388;2023-05-23T03:11:28;101426.50;;;20.94;36.84
50292;BME280;36190;54.980;73.388;2023-05-23T03:13:56;101417.47;;;21.00;36.62
50292;BME280;36190;54.980;73.388;2023-05-23T03:16:23;101418.09;;;21.09;36.33
50292;BME280;36190;54.980;73.388;2023-05-23T03:18:50;101417.66;;;21.19;36.20
50292;BME280;36190;54.980;73.388;2023-05-23T03:21:18;101427.22;;;21.28;36.20
50292;BME280;36190;54.980;73.388;2023-05-23T03:23:45;101425.91;;;21.38;36.04
50292;BME280;36190;54.980;73.388;2023-05-23T03:26:13;101422.56;;;21.42;35.63
50292;BME280;36190;54.980;73.388;2023-05-23T03:28:42;101421.50;;;21.50;35.54
50292;BME280;36190;54.980;73.388;2023-05-23T03:31:09;101422.06;;;21.59;35.27
50292;BME280;36190;54.980;73.388;2023-05-23T03:33:37;101419.09;;;21.67;34.95
50292;BME280;36190;54.980;73.388;2023-05-23T03:36:05;101417.00;;;21.69;34.92
50292;BME280;36190;54.980;73.388;2023-05-23T03:38:33;101418.25;;;21.74;34.87
50292;BME280;36190;54.980;73.388;2023-05-23T03:41:01;101411.56;;;21.69;34.98
50292;BME280;36190;54.980;73.388;2023-05-23T03:43:28;101418.69;;;21.70;35.11
50292;BME280;36190;54.980;73.388;2023-05-23T03:45:57;101415.09;;;21.77;35.11
50292;BME280;36190;54.980;73.388;2023-05-23T03:48:25;101414.00;;;21.84;34.84
50292;BME280;36190;54.980;73.388;2023-05-23T03:50:52;101408.97;;;21.88;34.60
50292;BME280;36190;54.980;73.388;2023-05-23T03:53:20;101407.69;;;21.91;34.63
50292;BME280;36190;54.980;73.388;2023-05-23T03:55:48;101427.72;;;21.96;34.57
50292;BME280;36190;54.980;73.388;2023-05-23T03:58:15;101425.63;;;21.98;34.51
50292;BME280;36190;54.980;73.388;2023-05-23T04:00:43;101418.25;;;22.06;34.45
50292;BME280;36190;54.980;73.388;2023-05-23T04:03:12;101419.63;;;22.15;34.31
50292;BME280;36190;54.980;73.388;2023-05-23T04:05:42;101422.94;;;22.24;34.46
50292;BME280;36190;54.980;73.388;2023-05-23T04:08:09;101420.34;;;22.29;34.46
50292;BME280;36190;54.980;73.388;2023-05-23T04:10:36;101423.47;;;22.33;34.30
50292;BME280;36190;54.980;73.388;2023-05-23T04:13:04;101415.31;;;22.33;34.33
50292;BME280;36190;54.980;73.388;2023-05-23T04:15:31;101417.75;;;22.41;34.31
50292;BME280;36190;54.980;73.388;2023-05-23T04:18:00;101416.44;;;22.50;33.92
50292;BME280;36190;54.980;73.388;2023-05-23T04:20:29;101414.44;;;22.64;33.67
50292;BME280;36190;54.980;73.388;2023-05-23T04:22:57;101416.19;;;22.77;33.14
50292;BME280;36190;54.980;73.388;2023-05-23T04:25:24;101427.38;;;22.88;33.20
50292;BME280;36190;54.980;73.388;2023-05-23T04:27:52;101419.38;;;22.93;32.99
50292;BME280;36190;54.980;73.388;2023-05-23T04:30:20;101427.69;;;22.98;33.08
50292;BME280;36190;54.980;73.388;2023-05-23T04:32:48;101420.97;;;23.01;33.25
50292;BME280;36190;54.980;73.388;2023-05-23T04:35:15;101409.69;;;22.97;33.27
50292;BME280;36190;54.980;73.388;2023-05-23T04:37:44;101412.72;;;23.07;33.20
50292;BME280;36190;54.980;73.388;2023-05-23T04:40:12;101427.06;;;23.15;33.19
50292;BME280;36190;54.980;73.388;2023-05-23T04:42:41;101426.63;;;23.18;32.63
50292;BME280;36190;54.980;73.388;2023-05-23T04:45:09;101417.84;;;23.16;32.30
50292;BME280;36190;54.980;73.388;2023-05-23T04:47:37;101418.69;;;23.16;32.20
50292;BME280;36190;54.980;73.388;2023-05-23T04:50:05;101422.84;;;23.19;31.81
50292;BME280;36190;54.980;73.388;2023-05-23T04:52:33;101418.16;;;23.26;31.61
50292;BME280;36190;54.980;73.388;2023-05-23T04:55:03;101423.06;;;23.36;31.48
50292;BME280;36190;54.980;73.388;2023-05-23T04:57:31;101408.19;;;23.39;31.04
50292;BME280;36190;54.980;73.388;2023-05-23T04:59:58;101419.03;;;23.57;30.59
50292;BME280;36190;54.980;73.388;2023-05-23T05:02:28;101415.53;;;23.69;30.47
50292;BME280;36190;54.980;73.388;2023-05-23T05:04:59;101422.78;;;23.75;29.78
50292;BME280;36190;54.980;73.388;2023-05-23T05:07:27;101420.88;;;23.75;29.75
50292;BME280;36190;54.980;73.388;2023-05-23T05:09:55;101411.19;;;23.80;29.48
50292;BME280;36190;54.980;73.388;2023-05-23T05:12:24;101418.44;;;23.98;29.42
50292;BME280;36190;54.980;73.388;2023-05-23T05:14:51;101409.50;;;24.09;28.66
50292;BME280;36190;54.980;73.388;2023-05-23T05:17:19;101405.72;;;24.10;28.43
50292;BME280;36190;54.980;73.388;2023-05-23T05:19:46;101404.16;;;24.14;28.24
50292;BME280;36190;54.980;73.388;2023-05-23T05:22:14;101396.34;;;24.18;28.03
50292;BME280;36190;54.980;73.388;2023-05-23T05:24:41;101397.66;;;24.27;27.94
50292;BME280;36190;54.980;73.388;2023-05-23T05:27:09;101399.69;;;24.32;27.48
50292;BME280;36190;54.980;73.388;2023-05-23T05:29:38;101391.97;;;24.29;27.75
50292;BME280;36190;54.980;73.388;2023-05-23T05:32:05;101397.63;;;24.15;27.75
50292;BME280;36190;54.980;73.388;2023-05-23T05:34:34;101394.66;;;24.05;27.50
50292;BME280;36190;54.980;73.388;2023-05-23T05:37:02;101389.66;;;24.02;27.47
50292;BME280;36190;54.980;73.388;2023-05-23T05:39:30;101391.94;;;24.05;27.38
50292;BME280;36190;54.980;73.388;2023-05-23T05:41:57;101392.31;;;24.09;27.21
50292;BME280;36190;54.980;73.388;2023-05-23T05:44:26;101399.31;;;24.16;27.10
50292;BME280;36190;54.980;73.388;2023-05-23T05:46:55;101383.41;;;24.13;27.10
50292;BME280;36190;54.980;73.388;2023-05-23T05:49:22;101388.59;;;24.03;26.75
50292;BME280;36190;54.980;73.388;2023-05-23T05:51:49;101388.34;;;23.93;26.85
50292;BME280;36190;54.980;73.388;2023-05-23T05:54:17;101387.16;;;23.88;26.90
50292;BME280;36190;54.980;73.388;2023-05-23T05:56:45;101388.81;;;23.89;26.86
50292;BME280;36190;54.980;73.388;2023-05-23T05:59:13;101368.22;;;23.94;26.71
50292;BME280;36190;54.980;73.388;2023-05-23T06:01:40;101381.25;;;23.92;26.84
50292;BME280;36190;54.980;73.388;2023-05-23T06:04:11;101378.25;;;23.81;26.79
50292;BME280;36190;54.980;73.388;2023-05-23T06:06:38;101373.81;;;23.68;26.81
50292;BME280;36190;54.980;73.388;2023-05-23T06:09:06;101374.16;;;23.60;27.15
50292;BME280;36190;54.980;73.388;2023-05-23T06:11:33;101376.31;;;23.70;27.33
50292;BME280;36190;54.980;73.388;2023-05-23T06:14:03;101364.03;;;23.79;27.08
50292;BME280;36190;54.980;73.388;2023-05-23T06:16:31;101363.69;;;23.87;27.18
50292;BME280;36190;54.980;73.388;2023-05-23T06:18:58;101377.44;;;23.93;26.86
50292;BME280;36190;54.980;73.388;2023-05-23T06:21:27;101377.91;;;23.89;26.52
50292;BME280;36190;54.980;73.388;2023-05-23T06:23:55;101353.50;;;23.83;26.56
50292;BME280;36190;54.980;73.388;2023-05-23T06:26:23;101357.06;;;23.83;26.45
50292;BME280;36190;54.980;73.388;2023-05-23T06:28:51;101358.72;;;23.84;26.28
50292;BME280;36190;54.980;73.388;2023-05-23T06:31:18;101358.25;;;23.87;26.31
50292;BME280;36190;54.980;73.388;2023-05-23T06:33:46;101347.69;;;23.91;26.14
50292;BME280;36190;54.980;73.388;2023-05-23T06:36:13;101343.78;;;23.99;26.09
50292;BME280;36190;54.980;73.388;2023-05-23T06:38:42;101344.63;;;23.99;25.50
50292;BME280;36190;54.980;73.388;2023-05-23T06:41:10;101339.75;;;24.01;25.71
50292;BME280;36190;54.980;73.388;2023-05-23T06:43:37;101340.25;;;23.98;25.17
50292;BME280;36190;54.980;73.388;2023-05-23T06:46:04;101341.19;;;23.92;25.10
50292;BME280;36190;54.980;73.388;2023-05-23T06:48:32;101344.03;;;23.85;25.06
50292;BME280;36190;54.980;73.388;2023-05-23T06:50:59;101330.84;;;23.82;25.26
50292;BME280;36190;54.980;73.388;2023-05-23T06:53:27;101338.31;;;23.87;25.11
50292;BME280;36190;54.980;73.388;2023-05-23T06:58:24;101330.69;;;24.08;24.89
50292;BME280;36190;54.980;73.388;2023-05-23T07:00:52;101342.66;;;24.19;24.64
50292;BME280;36190;54.980;73.388;2023-05-23T07:03:20;101332.34;;;24.33;24.51
50292;BME280;36190;54.980;73.388;2023-05-23T07:05:47;101335.28;;;24.55;24.38
50292;BME280;36190;54.980;73.388;2023-05-23T07:08:14;101325.63;;;24.76;24.32
50292;BME280;36190;54.980;73.388;2023-05-23T07:10:42;101327.28;;;24.89;23.94
50292;BME280;36190;54.980;73.388;2023-05-23T07:13:09;101321.94;;;24.94;23.93
50292;BME280;36190;54.980;73.388;2023-05-23T07:15:38;101318.34;;;25.06;23.70
50292;BME280;36190;54.980;73.388;2023-05-23T07:18:06;101314.22;;;25.20;23.65
50292;BME280;36190;54.980;73.388;2023-05-23T07:20:33;101319.28;;;25.29;23.61
50292;BME280;36190;54.980;73.388;2023-05-23T07:23:01;101329.66;;;25.26;23.49
50292;BME280;36190;54.980;73.388;2023-05-23T07:25:28;101324.69;;;25.23;23.47
50292;BME280;36190;54.980;73.388;2023-05-23T07:27:56;101317.56;;;25.22;23.58
50292;BME280;36190;54.980;73.388;2023-05-23T07:30:24;101313.59;;;25.30;23.51
50292;BME280;36190;54.980;73.388;2023-05-23T07:32:53;101318.09;;;25.36;23.41
50292;BME280;36190;54.980;73.388;2023-05-23T07:35:20;101315.41;;;25.53;23.39
50292;BME280;36190;54.980;73.388;2023-05-23T07:37:51;101319.97;;;25.82;23.20
50292;BME280;36190;54.980;73.388;2023-05-23T07:40:18;101312.66;;;26.05;22.74
50292;BME280;36190;54.980;73.388;2023-05-23T07:42:45;101306.00;;;26.18;23.13
50292;BME280;36190;54.980;73.388;2023-05-23T07:45:13;101296.41;;;26.32;22.85
50292;BME280;36190;54.980;73.388;2023-05-23T07:47:41;101293.22;;;26.41;22.46
50292;BME280;36190;54.980;73.388;2023-05-23T07:50:10;101303.81;;;26.54;22.40
50292;BME280;36190;54.980;73.388;2023-05-23T07:52:37;101299.91;;;26.72;22.04
50292;BME280;36190;54.980;73.388;2023-05-23T07:55:06;101310.69;;;26.79;22.14
50292;BME280;36190;54.980;73.388;2023-05-23T07:57:33;101310.84;;;26.72;21.67
50292;BME280;36190;54.980;73.388;2023-05-23T08:00:01;101298.16;;;26.61;22.04
50292;BME280;36190;54.980;73.388;2023-05-23T08:02:29;101282.81;;;26.60;21.75
50292;BME280;36190;54.980;73.388;2023-05-23T08:04:57;101286.34;;;26.60;21.44
50292;BME280;36190;54.980;73.388;2023-05-23T08:07:25;101275.94;;;26.57;21.67
50292;BME280;36190;54.980;73.388;2023-05-23T08:09:53;101284.84;;;26.70;21.68
50292;BME280;36190;54.980;73.388;2023-05-23T08:12:20;101286.19;;;26.89;21.33
50292;BME280;36190;54.980;73.388;2023-05-23T08:14:48;101288.63;;;27.13;21.24
50292;BME280;36190;54.980;73.388;2023-05-23T08:17:15;101283.38;;;27.39;20.85
50292;BME280;36190;54.980;73.388;2023-05-23T08:19:43;101281.13;;;27.58;20.75
50292;BME280;36190;54.980;73.388;2023-05-23T08:22:10;101288.59;;;27.68;20.45
50292;BME280;36190;54.980;73.388;2023-05-23T08:24:39;101285.19;;;27.56;20.26
50292;BME280;36190;54.980;73.388;2023-05-23T08:27:07;101284.09;;;27.57;20.19
50292;BME280;36190;54.980;73.388;2023-05-23T08:29:34;101282.28;;;27.68;20.40
50292;BME280;36190;54.980;73.388;2023-05-23T08:32:03;101284.78;;;27.75;20.18
50292;BME280;36190;54.980;73.388;2023-05-23T08:34:31;101281.59;;;27.88;20.47
50292;BME280;36190;54.980;73.388;2023-05-23T08:36:58;101280.97;;;28.19;20.22
50292;BME280;36190;54.980;73.388;2023-05-23T08:39:25;101279.53;;;28.54;20.10
50292;BME280;36190;54.980;73.388;2023-05-23T08:41:54;101286.22;;;28.84;19.84
50292;BME280;36190;54.980;73.388;2023-05-23T08:44:22;101288.44;;;28.87;19.37
50292;BME280;36190;54.980;73.388;2023-05-23T08:46:52;101276.31;;;28.78;19.07
50292;BME280;36190;54.980;73.388;2023-05-23T08:49:21;101279.31;;;28.81;18.79
50292;BME280;36190;54.980;73.388;2023-05-23T08:51:51;101286.22;;;28.84;18.59
50292;BME280;36190;54.980;73.388;2023-05-23T08:54:21;101272.81;;;28.93;18.58
50292;BME280;36190;54.980;73.388;2023-05-23T08:56:49;101277.25;;;29.15;18.54
50292;BME280;36190;54.980;73.388;2023-05-23T08:59:19;101282.19;;;29.33;18.80
50292;BME280;36190;54.980;73.388;2023-05-23T09:01:47;101273.41;;;29.31;18.02
50292;BME280;36190;54.980;73.388;2023-05-23T09:04:14;101277.50;;;29.34;17.94
50292;BME280;36190;54.980;73.388;2023-05-23T09:06:42;101274.25;;;29.53;17.76
50292;BME280;36190;54.980;73.388;2023-05-23T09:09:09;101274.53;;;29.67;18.12
50292;BME280;36190;54.980;73.388;2023-05-23T09:11:37;101268.72;;;29.89;17.76
50292;BME280;36190;54.980;73.388;2023-05-23T09:14:04;101267.34;;;29.97;17.63
50292;BME280;36190;54.980;73.388;2023-05-23T09:16:34;101268.41;;;30.22;17.69
50292;BME280;36190;54.980;73.388;2023-05-23T09:19:09;101262.19;;;30.56;17.40
50292;BME280;36190;54.980;73.388;2023-05-23T09:21:41;101272.50;;;30.90;17.26
50292;BME280;36190;54.980;73.388;2023-05-23T09:24:09;101281.72;;;31.10;16.98
50292;BME280;36190;54.980;73.388;2023-05-23T09:26:36;101275.22;;;30.95;16.54
50292;BME280;36190;54.980;73.388;2023-05-23T09:29:05;101274.75;;;30.78;16.51
50292;BME280;36190;54.980;73.388;2023-05-23T09:31:34;101272.63;;;30.59;16.54
50292;BME280;36190;54.980;73.388;2023-05-23T09:34:02;101263.81;;;30.67;16.82
50292;BME280;36190;54.980;73.388;2023-05-23T09:36:31;101256.88;;;30.75;16.66
50292;BME280;36190;54.980;73.388;2023-05-23T09:39:01;101259.81;;;30.89;16.34
50292;BME280;36190;54.980;73.388;2023-05-23T09:41:32;101254.75;;;31.07;16.24
50292;BME280;36190;54.980;73.388;2023-05-23T09:44:04;101263.34;;;31.40;16.08
50292;BME280;36190;54.980;73.388;2023-05-23T09:46:36;101263.72;;;31.58;16.21
50292;BME280;36190;54.980;73.388;2023-05-23T09:49:14;101268.56;;;31.71;16.04
50292;BME280;36190;54.980;73.388;2023-05-23T09:51:43;101263.28;;;31.75;16.10
50292;BME280;36190;54.980;73.388;2023-05-23T09:54:10;101251.09;;;31.81;15.88
50292;BME280;36190;54.980;73.388;2023-05-23T09:56:39;101253.50;;;31.93;15.54
50292;BME280;36190;54.980;73.388;2023-05-23T09:59:11;101245.13;;;31.98;15.37
50292;BME280;36190;54.980;73.388;2023-05-23T10:01:43;101225.81;;;32.22;14.91
50292;BME280;36190;54.980;73.388;2023-05-23T10:04:13;101246.09;;;32.75;14.58
50292;BME280;36190;54.980;73.388;2023-05-23T10:06:49;101255.13;;;32.81;14.37
50292;BME280;36190;54.980;73.388;2023-05-23T10:09:20;101244.09;;;32.81;14.85
50292;BME280;36190;54.980;73.388;2023-05-23T10:12:20;101242.78;;;33.31;14.99
50292;BME280;36190;54.980;73.388;2023-05-23T10:15:02;101243.50;;;33.56;14.21
50292;BME280;36190;54.980;73.388;2023-05-23T10:17:40;101243.97;;;33.44;14.14
50292;BME280;36190;54.980;73.388;2023-05-23T10:20:15;101242.81;;;32.92;14.18
50292;BME280;36190;54.980;73.388;2023-05-23T10:22:43;101245.06;;;33.10;15.12
50292;BME280;36190;54.980;73.388;2023-05-23T10:25:10;101250.13;;;33.55;14.67
50292;BME280;36190;54.980;73.388;2023-05-23T10:27:39;101251.84;;;34.12;14.53
50292;BME280;36190;54.980;73.388;2023-05-23T10:30:07;101241.94;;;34.76;13.96
50292;BME280;36190;54.980;73.388;2023-05-23T10:32:38;101244.47;;;35.32;13.75
50292;BME280;36190;54.980;73.388;2023-05-23T10:35:11;101250.59;;;35.20;13.23
50292;BME280;36190;54.980;73.388;2023-05-23T10:37:47;101239.22;;;34.84;12.91
50292;BME280;36190;54.980;73.388;2023-05-23T10:40:23;101245.50;;;34.76;13.37
50292;BME280;36190;54.980;73.388;2023-05-23T10:43:01;101245.94;;;35.06;12.98
50292;BME280;36190;54.980;73.388;2023-05-23T10:45:39;101246.50;;;35.49;12.83
50292;BME280;36190;54.980;73.388;2023-05-23T10:48:19;101250.53;;;35.65;12.48
50292;BME280;36190;54.980;73.388;2023-05-23T10:51:01;101259.94;;;35.87;13.24
50292;BME280;36190;54.980;73.388;2023-05-23T10:53:33;101252.97;;;35.99;12.66
50292;BME280;36190;54.980;73.388;2023-05-23T10:56:00;101260.75;;;36.28;12.57
50292;BME280;36190;54.980;73.388;2023-05-23T10:58:29;101264.06;;;36.57;12.60
50292;BME280;36190;54.980;73.388;2023-05-23T11:01:00;101249.88;;;36.85;12.05
50292;BME280;36190;54.980;73.388;2023-05-23T11:03:35;101244.28;;;37.11;12.15
50292;BME280;36190;54.980;73.388;2023-05-23T11:06:03;101244.44;;;37.24;11.88
50292;BME280;36190;54.980;73.388;2023-05-23T11:08:38;101251.28;;;37.35;11.85
50292;BME280;36190;54.980;73.388;2023-05-23T11:11:07;101253.31;;;37.08;11.77
50292;BME280;36190;54.980;73.388;2023-05-23T11:13:55;101245.59;;;37.14;12.15
50292;BME280;36190;54.980;73.388;2023-05-23T11:16:26;101242.97;;;37.18;11.84
50292;BME280;36190;54.980;73.388;2023-05-23T11:19:22;101243.88;;;37.48;11.70
50292;BME280;36190;54.980;73.388;2023-05-23T11:21:53;101229.50;;;37.46;11.85
50292;BME280;36190;54.980;73.388;2023-05-23T11:24:21;101239.59;;;37.98;11.72
50292;BME280;36190;54.980;73.388;2023-05-23T11:26:52;101241.84;;;38.14;11.46
50292;BME280;36190;54.980;73.388;2023-05-23T11:29:25;101244.94;;;38.13;11.50
50292;BME280;36190;54.980;73.388;2023-05-23T11:31:53;101249.47;;;38.47;11.78
50292;BME280;36190;54.980;73.388;2023-05-23T11:34:24;101238.41;;;38.38;11.46
50292;BME280;36190;54.980;73.388;2023-05-23T11:36:53;101249.47;;;38.26;11.32
50292;BME280;36190;54.980;73.388;2023-05-23T11:39:21;101244.59;;;38.23;11.22
50292;BME280;36190;54.980;73.388;2023-05-23T11:41:58;101233.38;;;38.53;11.03
50292;BME280;36190;54.980;73.388;2023-05-23T11:44:26;101236.16;;;38.96;11.25
50292;BME280;36190;54.980;73.388;2023-05-23T11:47:00;101231.22;;;39.60;10.79
50292;BME280;36190;54.980;73.388;2023-05-23T11:49:31;101229.59;;;39.84;10.91
50292;BME280;36190;54.980;73.388;2023-05-23T11:52:00;101239.03;;;40.04;10.61
50292;BME280;36190;54.980;73.388;2023-05-23T11:54:28;101239.63;;;39.97;10.73
50292;BME280;36190;54.980;73.388;2023-05-23T11:56:57;101234.19;;;39.42;10.90
50292;BME280;36190;54.980;73.388;2023-05-23T11:59:25;101236.00;;;39.26;10.42
50292;BME280;36190;54.980;73.388;2023-05-23T12:01:54;101222.38;;;39.58;10.81
50292;BME280;36190;54.980;73.388;2023-05-23T12:04:21;101230.66;;;39.67;10.28
50292;BME280;36190;54.980;73.388;2023-05-23T12:06:50;101230.41;;;39.84;10.18
50292;BME280;36190;54.980;73.388;2023-05-23T12:09:18;101244.22;;;40.18;10.60
50292;BME280;36190;54.980;73.388;2023-05-23T12:11:47;101235.59;;;40.48;10.25
50292;BME280;36190;54.980;73.388;2023-05-23T12:14:16;101246.31;;;40.46;10.20
50292;BME280;36190;54.980;73.388;2023-05-23T12:16:44;101234.19;;;40.42;10.55
50292;BME280;36190;54.980;73.388;2023-05-23T12:19:13;101234.94;;;40.14;10.45
50292;BME280;36190;54.980;73.388;2023-05-23T12:21:41;101235.16;;;40.21;10.54
50292;BME280;36190;54.980;73.388;2023-05-23T12:24:16;101236.19;;;40.41;9.90
50292;BME280;36190;54.980;73.388;2023-05-23T12:26:51;101236.84;;;40.63;10.24
50292;BME280;36190;54.980;73.388;2023-05-23T12:29:20;101225.22;;;40.77;9.68
50292;BME280;36190;54.980;73.388;2023-05-23T12:31:49;101239.47;;;40.72;10.03
50292;BME280;36190;54.980;73.388;2023-05-23T12:34:19;101226.84;;;40.50;9.72
50292;BME280;36190;54.980;73.388;2023-05-23T12:36:47;101226.78;;;40.21;9.98
50292;BME280;36190;54.980;73.388;2023-05-23T12:39:23;101219.78;;;40.27;10.21
50292;BME280;36190;54.980;73.388;2023-05-23T12:41:52;101222.47;;;40.36;10.08
50292;BME280;36190;54.980;73.388;2023-05-23T12:44:21;101217.41;;;40.54;10.17
50292;BME280;36190;54.980;73.388;2023-05-23T12:46:48;101226.19;;;40.28;9.84
50292;BME280;36190;54.980;73.388;2023-05-23T12:49:16;101223.31;;;40.12;10.37
50292;BME280;36190;54.980;73.388;2023-05-23T12:51:43;101217.44;;;40.29;10.35
50292;BME280;36190;54.980;73.388;2023-05-23T12:54:10;101219.44;;;40.70;9.98